sensor_id;sensor_type;location;lat;lon;timestamp;temperature;humidity
8485;DHT22;34555;49.34829940;8.43506100;2022-07-22T00:01:01;24.60;89.80
8485;DHT22;34555;49.34829940;8.43506100;2022-07-22T00:03:27;24.60;89.90
8485;DHT22;34555;49.34829940;8.43506100;2022-07-22T00:05:53;24.60;89.80
8485;DHT22;34555;49.34829940;8.43506100;2022-07-22T00:08:18;24.70;89.70
8485;DHT22;34555;49.34829940;8.43506100;2022-07-22T00:10:44;24.70;89.40
8485;DHT22;34555;49.34829940;8.43506100;2022-07-22T00:13:09;24.70;89.00
8485;DHT22;34555;49.34829940;8.43506100;2022-07-22T00:15:35;24.70;89.00
8485;DHT22;34555;49.34829940;8.43506100;2022-07-22T00:18:00;24.70;89.00
8485;DHT22;34555;49.34829940;8.43506100;2022-07-22T00:20:26;24.70;89.00
8485;DHT22;34555;49.34829940;8.43506100;2022-07-22T00:22:52;24.70;88.90
8485;DHT22;34555;49.34829940;8.43506100;2022-07-22T00:25:17;24.70;88.80
8485;DHT22;34555;49.34829940;8.43506100;2022-07-22T00:27:43;24.70;88.60
8485;DHT22;34555;49.34829940;8.43506100;2022-07-22T00:30:09;24.80;87.90
8485;DHT22;34555;49.34829940;8.43506100;2022-07-22T00:32:35;24.90;87.60
8485;DHT22;34555;49.34829940;8.43506100;2022-07-22T00:35:01;24.90;87.40
8485;DHT22;34555;49.34829940;8.43506100;2022-07-22T00:37:26;24.90;86.90
8485;DHT22;34555;49.34829940;8.43506100;2022-07-22T00:39:52;24.90;87.40
8485;DHT22;34555;49.34829940;8.43506100;2022-07-22T00:42:17;25.00;86.90
8485;DHT22;34555;49.34829940;8.43506100;2022-07-22T00:44:43;24.90;87.00
8485;DHT22;34555;49.34829940;8.43506100;2022-07-22T00:47:09;24.90;86.80
8485;DHT22;34555;49.34829940;8.43506100;2022-07-22T00:49:35;24.90;86.70
8485;DHT22;34555;49.34829940;8.43506100;2022-07-22T00:52:00;24.90;86.60
8485;DHT22;34555;49.34829940;8.43506100;2022-07-22T00:54:26;24.90;86.70
8485;DHT22;34555;49.34829940;8.43506100;2022-07-22T00:56:52;24.90;86.80
8485;DHT22;34555;49.34829940;8.43506100;2022-07-22T00:59:17;24.80;86.60
8485;DHT22;34555;49.34829940;8.43506100;2022-07-22T01:01:43;24.80;86.20
8485;DHT22;34555;49.34829940;8.43506100;2022-07-22T01:04:09;24.90;86.20
8485;DHT22;34555;49.34829940;8.43506100;2022-07-22T01:06:34;24.90;85.90
8485;DHT22;34555;49.34829940;8.43506100;2022-07-22T01:09:00;24.90;85.90
8485;DHT22;34555;49.34829940;8.43506100;2022-07-22T01:11:26;24.90;85.90
8485;DHT22;34555;49.34829940;8.43506100;2022-07-22T01:13:54;24.90;85.50
8485;DHT22;34555;49.34829940;8.43506100;2022-07-22T01:16:20;25.00;85.50
8485;DHT22;34555;49.34829940;8.43506100;2022-07-22T01:18:46;24.90;85.30
8485;DHT22;34555;49.34829940;8.43506100;2022-07-22T01:21:13;24.90;85.30
8485;DHT22;34555;49.34829940;8.43506100;2022-07-22T01:23:40;24.90;85.30
8485;DHT22;34555;49.34829940;8.43506100;2022-07-22T01:26:05;24.90;85.10
8485;DHT22;34555;49.34829940;8.43506100;2022-07-22T01:28:32;25.00;84.70
8485;DHT22;34555;49.34829940;8.43506100;2022-07-22T01:30:58;25.00;84.40
8485;DHT22;34555;49.34829940;8.43506100;2022-07-22T01:33:23;25.00;84.20
8485;DHT22;34555;49.34829940;8.43506100;2022-07-22T01:35:50;25.00;84.30
8485;DHT22;34555;49.34829940;8.43506100;2022-07-22T01:38:16;25.00;84.10
8485;DHT22;34555;49.34829940;8.43506100;2022-07-22T01:40:42;25.00;84.40
8485;DHT22;34555;49.34829940;8.43506100;2022-07-22T01:43:08;24.90;84.30
8485;DHT22;34555;49.34829940;8.43506100;2022-07-22T01:45:34;24.80;84.50
8485;DHT22;34555;49.34829940;8.43506100;2022-07-22T01:48:00;24.50;85.60
8485;DHT22;34555;49.34829940;8.43506100;2022-07-22T01:50:25;24.30;86.20
8485;DHT22;34555;49.34829940;8.43506100;2022-07-22T01:52:51;24.30;86.20
8485;DHT22;34555;49.34829940;8.43506100;2022-07-22T01:55:17;24.30;86.20
8485;DHT22;34555;49.34829940;8.43506100;2022-07-22T01:57:43;24.40;85.90
8485;DHT22;34555;49.34829940;8.43506100;2022-07-22T02:00:09;24.10;86.20
8485;DHT22;34555;49.34829940;8.43506100;2022-07-22T02:02:35;24.20;86.60
8485;DHT22;34555;49.34829940;8.43506100;2022-07-22T02:05:02;24.20;86.30
8485;DHT22;34555;49.34829940;8.43506100;2022-07-22T02:07:28;24.30;85.90
8485;DHT22;34555;49.34829940;8.43506100;2022-07-22T02:09:54;24.20;86.10
8485;DHT22;34555;49.34829940;8.43506100;2022-07-22T02:12:19;24.10;86.40
8485;DHT22;34555;49.34829940;8.43506100;2022-07-22T02:14:45;24.10;86.40
8485;DHT22;34555;49.34829940;8.43506100;2022-07-22T02:17:12;24.30;86.20
8485;DHT22;34555;49.34829940;8.43506100;2022-07-22T02:19:39;24.30;85.90
8485;DHT22;34555;49.34829940;8.43506100;2022-07-22T02:22:04;24.40;85.40
8485;DHT22;34555;49.34829940;8.43506100;2022-07-22T02:24:30;24.60;84.70
8485;DHT22;34555;49.34829940;8.43506100;2022-07-22T02:26:56;24.70;84.10
8485;DHT22;34555;49.34829940;8.43506100;2022-07-22T02:29:21;24.70;84.10
8485;DHT22;34555;49.34829940;8.43506100;2022-07-22T02:31:47;24.50;84.40
8485;DHT22;34555;49.34829940;8.43506100;2022-07-22T02:34:13;24.60;84.40
8485;DHT22;34555;49.34829940;8.43506100;2022-07-22T02:36:38;24.60;84.00
8485;DHT22;34555;49.34829940;8.43506100;2022-07-22T02:39:04;24.70;84.10
8485;DHT22;34555;49.34829940;8.43506100;2022-07-22T02:41:30;24.70;83.60
8485;DHT22;34555;49.34829940;8.43506100;2022-07-22T02:43:56;24.80;83.40
8485;DHT22;34555;49.34829940;8.43506100;2022-07-22T02:46:22;24.70;83.40
8485;DHT22;34555;49.34829940;8.43506100;2022-07-22T02:48:48;24.60;84.00
8485;DHT22;34555;49.34829940;8.43506100;2022-07-22T02:51:14;24.70;83.70
8485;DHT22;34555;49.34829940;8.43506100;2022-07-22T02:53:39;24.70;83.50
8485;DHT22;34555;49.34829940;8.43506100;2022-07-22T02:56:05;24.80;83.20
8485;DHT22;34555;49.34829940;8.43506100;2022-07-22T02:58:31;24.90;83.20
8485;DHT22;34555;49.34829940;8.43506100;2022-07-22T03:00:56;24.90;82.90
8485;DHT22;34555;49.34829940;8.43506100;2022-07-22T03:03:22;24.80;82.50
8485;DHT22;34555;49.34829940;8.43506100;2022-07-22T03:05:49;24.90;82.60
8485;DHT22;34555;49.34829940;8.43506100;2022-07-22T03:08:15;24.90;82.40
8485;DHT22;34555;49.34829940;8.43506100;2022-07-22T03:10:40;24.80;82.50
8485;DHT22;34555;49.34829940;8.43506100;2022-07-22T03:13:06;24.50;83.20
8485;DHT22;34555;49.34829940;8.43506100;2022-07-22T03:15:31;24.40;84.10
8485;DHT22;34555;49.34829940;8.43506100;2022-07-22T03:17:57;24.40;84.10
8485;DHT22;34555;49.34829940;8.43506100;2022-07-22T03:20:23;24.40;84.40
8485;DHT22;34555;49.34829940;8.43506100;2022-07-22T03:22:48;24.40;84.10
8485;DHT22;34555;49.34829940;8.43506100;2022-07-22T03:25:14;24.50;83.80
8485;DHT22;34555;49.34829940;8.43506100;2022-07-22T03:27:39;24.70;83.40
8485;DHT22;34555;49.34829940;8.43506100;2022-07-22T03:30:06;24.70;82.90
8485;DHT22;34555;49.34829940;8.43506100;2022-07-22T03:32:31;24.70;82.70
8485;DHT22;34555;49.34829940;8.43506100;2022-07-22T03:34:57;24.70;82.50
8485;DHT22;34555;49.34829940;8.43506100;2022-07-22T03:37:23;24.70;82.80
8485;DHT22;34555;49.34829940;8.43506100;2022-07-22T03:39:48;24.40;83.40
8485;DHT22;34555;49.34829940;8.43506100;2022-07-22T03:42:14;24.40;83.80
8485;DHT22;34555;49.34829940;8.43506100;2022-07-22T03:44:39;24.30;84.20
8485;DHT22;34555;49.34829940;8.43506100;2022-07-22T03:47:05;24.50;83.50
8485;DHT22;34555;49.34829940;8.43506100;2022-07-22T03:49:31;24.50;82.90
8485;DHT22;34555;49.34829940;8.43506100;2022-07-22T03:51:57;24.20;83.70
8485;DHT22;34555;49.34829940;8.43506100;2022-07-22T03:54:22;24.10;84.70
8485;DHT22;34555;49.34829940;8.43506100;2022-07-22T03:56:48;24.20;84.60
8485;DHT22;34555;49.34829940;8.43506100;2022-07-22T03:59:14;24.10;84.80
8485;DHT22;34555;49.34829940;8.43506100;2022-07-22T04:01:39;23.90;85.10
8485;DHT22;34555;49.34829940;8.43506100;2022-07-22T04:04:05;24.00;85.00
8485;DHT22;34555;49.34829940;8.43506100;2022-07-22T04:06:31;24.00;85.30
8485;DHT22;34555;49.34829940;8.43506100;2022-07-22T04:08:57;23.80;85.80
8485;DHT22;34555;49.34829940;8.43506100;2022-07-22T04:11:22;23.60;86.60
8485;DHT22;34555;49.34829940;8.43506100;2022-07-22T04:13:48;23.50;87.30
8485;DHT22;34555;49.34829940;8.43506100;2022-07-22T04:16:13;23.80;86.60
8485;DHT22;34555;49.34829940;8.43506100;2022-07-22T04:18:39;23.70;86.60
8485;DHT22;34555;49.34829940;8.43506100;2022-07-22T04:21:05;23.70;86.70
8485;DHT22;34555;49.34829940;8.43506100;2022-07-22T04:23:30;23.70;87.20
8485;DHT22;34555;49.34829940;8.43506100;2022-07-22T04:25:56;23.80;85.90
8485;DHT22;34555;49.34829940;8.43506100;2022-07-22T04:28:21;24.00;85.00
8485;DHT22;34555;49.34829940;8.43506100;2022-07-22T04:30:47;24.10;84.20
8485;DHT22;34555;49.34829940;8.43506100;2022-07-22T04:33:13;24.10;84.10
8485;DHT22;34555;49.34829940;8.43506100;2022-07-22T04:35:38;24.00;83.90
8485;DHT22;34555;49.34829940;8.43506100;2022-07-22T04:38:04;24.10;83.50
8485;DHT22;34555;49.34829940;8.43506100;2022-07-22T04:40:29;23.90;84.30
8485;DHT22;34555;49.34829940;8.43506100;2022-07-22T04:42:55;24.10;83.50
8485;DHT22;34555;49.34829940;8.43506100;2022-07-22T04:45:21;24.20;83.20
8485;DHT22;34555;49.34829940;8.43506100;2022-07-22T04:47:46;24.10;83.20
8485;DHT22;34555;49.34829940;8.43506100;2022-07-22T04:50:12;24.00;83.40
8485;DHT22;34555;49.34829940;8.43506100;2022-07-22T04:52:37;24.00;83.20
8485;DHT22;34555;49.34829940;8.43506100;2022-07-22T04:55:03;24.10;83.10
8485;DHT22;34555;49.34829940;8.43506100;2022-07-22T04:57:29;24.30;82.20
8485;DHT22;34555;49.34829940;8.43506100;2022-07-22T04:59:55;24.40;81.70
8485;DHT22;34555;49.34829940;8.43506100;2022-07-22T05:02:20;24.20;82.10
8485;DHT22;34555;49.34829940;8.43506100;2022-07-22T05:04:46;24.20;82.30
8485;DHT22;34555;49.34829940;8.43506100;2022-07-22T05:07:12;24.20;82.00
8485;DHT22;34555;49.34829940;8.43506100;2022-07-22T05:09:37;24.30;82.00
8485;DHT22;34555;49.34829940;8.43506100;2022-07-22T05:12:03;24.20;82.10
8485;DHT22;34555;49.34829940;8.43506100;2022-07-22T05:14:29;24.40;81.70
8485;DHT22;34555;49.34829940;8.43506100;2022-07-22T05:16:55;24.30;81.70
8485;DHT22;34555;49.34829940;8.43506100;2022-07-22T05:19:21;24.40;81.30
8485;DHT22;34555;49.34829940;8.43506100;2022-07-22T05:21:46;24.10;82.10
8485;DHT22;34555;49.34829940;8.43506100;2022-07-22T05:24:12;24.00;82.70
8485;DHT22;34555;49.34829940;8.43506100;2022-07-22T05:26:38;24.20;82.40
8485;DHT22;34555;49.34829940;8.43506100;2022-07-22T05:29:03;24.40;81.30
8485;DHT22;34555;49.34829940;8.43506100;2022-07-22T05:31:29;24.30;81.20
8485;DHT22;34555;49.34829940;8.43506100;2022-07-22T05:33:55;24.30;81.20
8485;DHT22;34555;49.34829940;8.43506100;2022-07-22T05:36:20;24.10;81.80
8485;DHT22;34555;49.34829940;8.43506100;2022-07-22T05:38:46;24.30;82.00
8485;DHT22;34555;49.34829940;8.43506100;2022-07-22T05:41:12;24.40;81.30
8485;DHT22;34555;49.34829940;8.43506100;2022-07-22T05:43:37;24.40;81.10
8485;DHT22;34555;49.34829940;8.43506100;2022-07-22T05:46:03;24.40;81.10
8485;DHT22;34555;49.34829940;8.43506100;2022-07-22T05:48:29;24.30;81.20
8485;DHT22;34555;49.34829940;8.43506100;2022-07-22T05:50:54;24.40;81.20
8485;DHT22;34555;49.34829940;8.43506100;2022-07-22T05:53:20;24.50;80.70
8485;DHT22;34555;49.34829940;8.43506100;2022-07-22T05:55:45;24.50;80.60
8485;DHT22;34555;49.34829940;8.43506100;2022-07-22T05:58:11;24.50;80.40
8485;DHT22;34555;49.34829940;8.43506100;2022-07-22T06:00:36;24.60;80.40
8485;DHT22;34555;49.34829940;8.43506100;2022-07-22T06:03:02;24.60;79.80
8485;DHT22;34555;49.34829940;8.43506100;2022-07-22T06:05:27;24.60;80.00
8485;DHT22;34555;49.34829940;8.43506100;2022-07-22T06:07:53;24.60;79.80
8485;DHT22;34555;49.34829940;8.43506100;2022-07-22T06:10:19;24.50;79.90
8485;DHT22;34555;49.34829940;8.43506100;2022-07-22T06:12:44;24.50;80.00
8485;DHT22;34555;49.34829940;8.43506100;2022-07-22T06:15:10;24.50;80.40
8485;DHT22;34555;49.34829940;8.43506100;2022-07-22T06:17:35;24.50;80.50
8485;DHT22;34555;49.34829940;8.43506100;2022-07-22T06:20:01;24.50;80.80
8485;DHT22;34555;49.34829940;8.43506100;2022-07-22T06:22:27;24.60;79.60
8485;DHT22;34555;49.34829940;8.43506100;2022-07-22T06:24:53;24.60;79.40
8485;DHT22;34555;49.34829940;8.43506100;2022-07-22T06:27:18;24.70;79.10
8485;DHT22;34555;49.34829940;8.43506100;2022-07-22T06:29:44;24.60;79.00
8485;DHT22;34555;49.34829940;8.43506100;2022-07-22T06:32:10;24.50;79.70
8485;DHT22;34555;49.34829940;8.43506100;2022-07-22T06:34:35;24.50;79.90
8485;DHT22;34555;49.34829940;8.43506100;2022-07-22T06:37:01;24.60;79.60
8485;DHT22;34555;49.34829940;8.43506100;2022-07-22T06:39:26;24.70;79.10
8485;DHT22;34555;49.34829940;8.43506100;2022-07-22T06:41:52;24.80;79.20
8485;DHT22;34555;49.34829940;8.43506100;2022-07-22T06:44:17;24.80;78.70
8485;DHT22;34555;49.34829940;8.43506100;2022-07-22T06:46:43;24.80;78.60
8485;DHT22;34555;49.34829940;8.43506100;2022-07-22T06:49:09;24.90;79.30
8485;DHT22;34555;49.34829940;8.43506100;2022-07-22T06:51:34;24.70;79.10
8485;DHT22;34555;49.34829940;8.43506100;2022-07-22T06:54:00;24.80;79.00
8485;DHT22;34555;49.34829940;8.43506100;2022-07-22T06:56:26;24.90;78.90
8485;DHT22;34555;49.34829940;8.43506100;2022-07-22T06:58:52;25.00;78.60
8485;DHT22;34555;49.34829940;8.43506100;2022-07-22T07:01:18;25.10;78.20
8485;DHT22;34555;49.34829940;8.43506100;2022-07-22T07:03:43;25.00;78.30
8485;DHT22;34555;49.34829940;8.43506100;2022-07-22T07:06:10;25.10;78.10
8485;DHT22;34555;49.34829940;8.43506100;2022-07-22T07:08:37;25.10;77.80
8485;DHT22;34555;49.34829940;8.43506100;2022-07-22T07:11:03;25.10;77.90
8485;DHT22;34555;49.34829940;8.43506100;2022-07-22T07:13:29;25.10;77.70
8485;DHT22;34555;49.34829940;8.43506100;2022-07-22T07:15:55;25.20;77.60
8485;DHT22;34555;49.34829940;8.43506100;2022-07-22T07:18:20;25.20;77.50
8485;DHT22;34555;49.34829940;8.43506100;2022-07-22T07:20:46;25.20;77.70
8485;DHT22;34555;49.34829940;8.43506100;2022-07-22T07:23:11;25.20;77.90
8485;DHT22;34555;49.34829940;8.43506100;2022-07-22T07:25:37;25.20;77.60
8485;DHT22;34555;49.34829940;8.43506100;2022-07-22T07:28:03;25.30;77.40
8485;DHT22;34555;49.34829940;8.43506100;2022-07-22T07:30:28;25.30;77.20
8485;DHT22;34555;49.34829940;8.43506100;2022-07-22T07:32:54;25.30;77.40
8485;DHT22;34555;49.34829940;8.43506100;2022-07-22T07:35:19;25.30;77.20
8485;DHT22;34555;49.34829940;8.43506100;2022-07-22T07:37:45;25.30;77.20
8485;DHT22;34555;49.34829940;8.43506100;2022-07-22T07:40:11;25.30;77.10
8485;DHT22;34555;49.34829940;8.43506100;2022-07-22T07:42:37;25.40;76.80
8485;DHT22;34555;49.34829940;8.43506100;2022-07-22T07:45:03;25.40;76.70
8485;DHT22;34555;49.34829940;8.43506100;2022-07-22T07:47:29;25.40;76.70
8485;DHT22;34555;49.34829940;8.43506100;2022-07-22T07:49:55;25.40;76.60
8485;DHT22;34555;49.34829940;8.43506100;2022-07-22T07:52:23;25.50;76.60
8485;DHT22;34555;49.34829940;8.43506100;2022-07-22T07:54:48;25.50;76.60
8485;DHT22;34555;49.34829940;8.43506100;2022-07-22T07:57:14;25.50;76.50
8485;DHT22;34555;49.34829940;8.43506100;2022-07-22T07:59:40;25.60;76.80
8485;DHT22;34555;49.34829940;8.43506100;2022-07-22T08:02:06;25.50;76.40
8485;DHT22;34555;49.34829940;8.43506100;2022-07-22T08:04:34;25.50;76.30
8485;DHT22;34555;49.34829940;8.43506100;2022-07-22T08:06:59;25.60;76.20
8485;DHT22;34555;49.34829940;8.43506100;2022-07-22T08:09:25;25.50;76.20
8485;DHT22;34555;49.34829940;8.43506100;2022-07-22T08:11:51;25.50;76.20
8485;DHT22;34555;49.34829940;8.43506100;2022-07-22T08:14:17;25.50;76.20
8485;DHT22;34555;49.34829940;8.43506100;2022-07-22T08:16:43;25.50;76.20
8485;DHT22;34555;49.34829940;8.43506100;2022-07-22T08:19:08;25.40;76.10
8485;DHT22;34555;49.34829940;8.43506100;2022-07-22T08:21:34;25.50;76.30
8485;DHT22;34555;49.34829940;8.43506100;2022-07-22T08:24:00;25.50;76.20
8485;DHT22;34555;49.34829940;8.43506100;2022-07-22T08:26:26;25.50;76.40
8485;DHT22;34555;49.34829940;8.43506100;2022-07-22T08:28:52;25.60;76.20
8485;DHT22;34555;49.34829940;8.43506100;2022-07-22T08:31:17;25.60;76.30
8485;DHT22;34555;49.34829940;8.43506100;2022-07-22T08:33:43;25.60;76.00
8485;DHT22;34555;49.34829940;8.43506100;2022-07-22T08:36:08;25.60;76.00
8485;DHT22;34555;49.34829940;8.43506100;2022-07-22T08:38:34;25.50;75.90
8485;DHT22;34555;49.34829940;8.43506100;2022-07-22T08:41:01;25.50;75.80
8485;DHT22;34555;49.34829940;8.43506100;2022-07-22T08:43:27;25.60;75.90
8485;DHT22;34555;49.34829940;8.43506100;2022-07-22T08:45:53;25.50;75.90
8485;DHT22;34555;49.34829940;8.43506100;2022-07-22T08:48:19;25.60;76.20
8485;DHT22;34555;49.34829940;8.43506100;2022-07-22T08:50:44;25.70;76.50
8485;DHT22;34555;49.34829940;8.43506100;2022-07-22T08:53:11;25.70;75.90
8485;DHT22;34555;49.34829940;8.43506100;2022-07-22T08:55:47;25.60;75.90
8485;DHT22;34555;49.34829940;8.43506100;2022-07-22T08:58:14;25.70;75.90
8485;DHT22;34555;49.34829940;8.43506100;2022-07-22T09:00:40;25.70;75.90
8485;DHT22;34555;49.34829940;8.43506100;2022-07-22T09:03:22;25.70;75.80
8485;DHT22;34555;49.34829940;8.43506100;2022-07-22T09:05:50;25.60;75.80
8485;DHT22;34555;49.34829940;8.43506100;2022-07-22T09:08:15;25.70;75.80
8485;DHT22;34555;49.34829940;8.43506100;2022-07-22T09:10:41;25.70;75.90
8485;DHT22;34555;49.34829940;8.43506100;2022-07-22T09:13:09;25.70;75.70
8485;DHT22;34555;49.34829940;8.43506100;2022-07-22T09:15:37;25.70;75.70
8485;DHT22;34555;49.34829940;8.43506100;2022-07-22T09:18:05;25.70;75.60
8485;DHT22;34555;49.34829940;8.43506100;2022-07-22T09:20:32;25.70;75.70
8485;DHT22;34555;49.34829940;8.43506100;2022-07-22T09:22:58;25.70;75.60
8485;DHT22;34555;49.34829940;8.43506100;2022-07-22T09:25:28;25.80;76.30
8485;DHT22;34555;49.34829940;8.43506100;2022-07-22T09:30:31;25.80;75.80
8485;DHT22;34555;49.34829940;8.43506100;2022-07-22T09:32:56;25.80;76.00
8485;DHT22;34555;49.34829940;8.43506100;2022-07-22T09:35:23;25.80;76.00
8485;DHT22;34555;49.34829940;8.43506100;2022-07-22T09:37:56;25.80;75.80
8485;DHT22;34555;49.34829940;8.43506100;2022-07-22T09:40:24;25.80;75.90
8485;DHT22;34555;49.34829940;8.43506100;2022-07-22T09:45:17;25.80;75.70
8485;DHT22;34555;49.34829940;8.43506100;2022-07-22T09:47:44;25.80;75.60
8485;DHT22;34555;49.34829940;8.43506100;2022-07-22T09:50:24;25.80;75.50
8485;DHT22;34555;49.34829940;8.43506100;2022-07-22T09:52:52;25.90;75.60
8485;DHT22;34555;49.34829940;8.43506100;2022-07-22T09:55:20;25.90;75.50
8485;DHT22;34555;49.34829940;8.43506100;2022-07-22T09:57:47;25.90;75.90
8485;DHT22;34555;49.34829940;8.43506100;2022-07-22T10:00:14;25.90;76.20
8485;DHT22;34555;49.34829940;8.43506100;2022-07-22T10:02:45;26.00;75.90
8485;DHT22;34555;49.34829940;8.43506100;2022-07-22T10:05:12;26.00;75.50
8485;DHT22;34555;49.34829940;8.43506100;2022-07-22T10:07:41;26.00;75.60
8485;DHT22;34555;49.34829940;8.43506100;2022-07-22T10:10:09;26.00;75.60
8485;DHT22;34555;49.34829940;8.43506100;2022-07-22T10:12:36;26.00;75.60
8485;DHT22;34555;49.34829940;8.43506100;2022-07-22T10:15:02;26.10;76.10
8485;DHT22;34555;49.34829940;8.43506100;2022-07-22T10:17:28;26.10;75.90
8485;DHT22;34555;49.34829940;8.43506100;2022-07-22T10:19:55;26.10;75.50
8485;DHT22;34555;49.34829940;8.43506100;2022-07-22T10:22:57;26.10;76.00
8485;DHT22;34555;49.34829940;8.43506100;2022-07-22T10:25:25;26.10;75.60
8485;DHT22;34555;49.34829940;8.43506100;2022-07-22T10:28:03;26.10;75.50
8485;DHT22;34555;49.34829940;8.43506100;2022-07-22T10:30:30;26.10;76.30
8485;DHT22;34555;49.34829940;8.43506100;2022-07-22T10:33:06;26.20;77.00
8485;DHT22;34555;49.34829940;8.43506100;2022-07-22T10:35:34;26.20;77.00
8485;DHT22;34555;49.34829940;8.43506100;2022-07-22T10:38:06;26.20;77.60
8485;DHT22;34555;49.34829940;8.43506100;2022-07-22T10:43:15;26.70;81.80
8485;DHT22;34555;49.34829940;8.43506100;2022-07-22T10:45:42;26.80;82.80
8485;DHT22;34555;49.34829940;8.43506100;2022-07-22T10:48:12;26.80;83.10
8485;DHT22;34555;49.34829940;8.43506100;2022-07-22T10:50:40;26.80;83.30
8485;DHT22;34555;49.34829940;8.43506100;2022-07-22T10:55:37;26.90;83.10
8485;DHT22;34555;49.34829940;8.43506100;2022-07-22T11:01:04;26.80;82.70
8485;DHT22;34555;49.34829940;8.43506100;2022-07-22T11:03:30;26.70;82.40
8485;DHT22;34555;49.34829940;8.43506100;2022-07-22T11:05:57;26.60;80.90
8485;DHT22;34555;49.34829940;8.43506100;2022-07-22T11:08:37;26.50;80.60
8485;DHT22;34555;49.34829940;8.43506100;2022-07-22T11:11:03;26.40;80.60
8485;DHT22;34555;49.34829940;8.43506100;2022-07-22T11:13:33;26.40;80.50
8485;DHT22;34555;49.34829940;8.43506100;2022-07-22T11:21:23;26.40;79.90
8485;DHT22;34555;49.34829940;8.43506100;2022-07-22T11:23:53;26.40;79.70
8485;DHT22;34555;49.34829940;8.43506100;2022-07-22T11:26:37;26.40;79.50
8485;DHT22;34555;49.34829940;8.43506100;2022-07-22T11:29:03;26.40;79.50
8485;DHT22;34555;49.34829940;8.43506100;2022-07-22T11:31:29;26.40;79.50
8485;DHT22;34555;49.34829940;8.43506100;2022-07-22T11:34:12;26.40;79.30
8485;DHT22;34555;49.34829940;8.43506100;2022-07-22T11:36:40;26.40;79.10
8485;DHT22;34555;49.34829940;8.43506100;2022-07-22T11:39:07;26.50;79.10
8485;DHT22;34555;49.34829940;8.43506100;2022-07-22T11:41:34;26.40;79.10
8485;DHT22;34555;49.34829940;8.43506100;2022-07-22T11:44:00;26.40;78.90
8485;DHT22;34555;49.34829940;8.43506100;2022-07-22T11:46:27;26.50;78.90
8485;DHT22;34555;49.34829940;8.43506100;2022-07-22T11:48:53;26.50;78.90
8485;DHT22;34555;49.34829940;8.43506100;2022-07-22T11:51:19;26.50;78.80
8485;DHT22;34555;49.34829940;8.43506100;2022-07-22T11:53:45;26.50;78.80
8485;DHT22;34555;49.34829940;8.43506100;2022-07-22T11:56:11;26.50;78.80
8485;DHT22;34555;49.34829940;8.43506100;2022-07-22T11:58:44;26.50;78.80
8485;DHT22;34555;49.34829940;8.43506100;2022-07-22T12:01:12;26.50;78.50
8485;DHT22;34555;49.34829940;8.43506100;2022-07-22T12:03:41;26.50;78.70
8485;DHT22;34555;49.34829940;8.43506100;2022-07-22T12:06:13;26.50;78.80
8485;DHT22;34555;49.34829940;8.43506100;2022-07-22T12:08:41;26.60;78.80
8485;DHT22;34555;49.34829940;8.43506100;2022-07-22T12:11:08;26.60;78.70
8485;DHT22;34555;49.34829940;8.43506100;2022-07-22T12:13:34;26.60;78.60
8485;DHT22;34555;49.34829940;8.43506100;2022-07-22T12:16:00;26.60;78.10
8485;DHT22;34555;49.34829940;8.43506100;2022-07-22T12:18:41;26.60;78.10
8485;DHT22;34555;49.34829940;8.43506100;2022-07-22T12:21:07;26.60;78.10
8485;DHT22;34555;49.34829940;8.43506100;2022-07-22T12:23:33;26.60;78.10
8485;DHT22;34555;49.34829940;8.43506100;2022-07-22T12:26:00;26.60;77.90
8485;DHT22;34555;49.34829940;8.43506100;2022-07-22T12:28:26;26.60;77.90
8485;DHT22;34555;49.34829940;8.43506100;2022-07-22T12:30:54;26.60;77.70
8485;DHT22;34555;49.34829940;8.43506100;2022-07-22T12:33:21;26.60;77.70
8485;DHT22;34555;49.34829940;8.43506100;2022-07-22T12:36:01;26.60;77.60
8485;DHT22;34555;49.34829940;8.43506100;2022-07-22T12:38:29;26.70;77.60
8485;DHT22;34555;49.34829940;8.43506100;2022-07-22T12:40:54;26.70;77.50
8485;DHT22;34555;49.34829940;8.43506100;2022-07-22T12:43:24;26.70;77.40
8485;DHT22;34555;49.34829940;8.43506100;2022-07-22T12:45:51;26.70;77.20
8485;DHT22;34555;49.34829940;8.43506100;2022-07-22T12:48:16;26.70;77.20
8485;DHT22;34555;49.34829940;8.43506100;2022-07-22T12:50:57;26.70;77.20
8485;DHT22;34555;49.34829940;8.43506100;2022-07-22T12:53:24;26.70;77.10
8485;DHT22;34555;49.34829940;8.43506100;2022-07-22T12:55:53;26.70;77.10
8485;DHT22;34555;49.34829940;8.43506100;2022-07-22T12:58:24;26.70;77.00
8485;DHT22;34555;49.34829940;8.43506100;2022-07-22T13:00:56;26.70;76.90
8485;DHT22;34555;49.34829940;8.43506100;2022-07-22T13:03:22;26.70;76.90
8485;DHT22;34555;49.34829940;8.43506100;2022-07-22T13:05:55;26.80;77.10
8485;DHT22;34555;49.34829940;8.43506100;2022-07-22T13:08:21;26.80;77.10
8485;DHT22;34555;49.34829940;8.43506100;2022-07-22T13:10:49;26.80;77.20
8485;DHT22;34555;49.34829940;8.43506100;2022-07-22T13:13:14;26.80;77.30
8485;DHT22;34555;49.34829940;8.43506100;2022-07-22T13:15:40;26.80;77.20
8485;DHT22;34555;49.34829940;8.43506100;2022-07-22T13:18:05;26.80;77.90
8485;DHT22;34555;49.34829940;8.43506100;2022-07-22T13:20:31;26.80;77.00
8485;DHT22;34555;49.34829940;8.43506100;2022-07-22T13:22:57;26.80;76.80
8485;DHT22;34555;49.34829940;8.43506100;2022-07-22T13:25:23;26.90;76.70
8485;DHT22;34555;49.34829940;8.43506100;2022-07-22T13:27:52;26.90;76.80
8485;DHT22;34555;49.34829940;8.43506100;2022-07-22T13:30:18;26.90;76.70
8485;DHT22;34555;49.34829940;8.43506100;2022-07-22T13:32:43;26.90;76.50
8485;DHT22;34555;49.34829940;8.43506100;2022-07-22T13:35:09;26.90;76.50
8485;DHT22;34555;49.34829940;8.43506100;2022-07-22T13:37:34;26.90;76.50
8485;DHT22;34555;49.34829940;8.43506100;2022-07-22T13:40:00;26.90;76.30
8485;DHT22;34555;49.34829940;8.43506100;2022-07-22T13:42:26;27.00;76.40
8485;DHT22;34555;49.34829940;8.43506100;2022-07-22T13:44:51;26.90;76.30
8485;DHT22;34555;49.34829940;8.43506100;2022-07-22T13:47:19;27.00;76.20
8485;DHT22;34555;49.34829940;8.43506100;2022-07-22T13:49:45;27.00;76.80